sensor_id;sensor_type;location;lat;lon;timestamp;pressure;altitude;pressure_sealevel;temperature;humidity
64023;BME280;50264;52.088;5.296;2023-02-18T00:01:01;102141.0;;;11.06;96.26
64023;BME280;50264;52.088;5.296;2023-02-18T00:04:14;102144.0;;;11.08;96.03
64023;BME280;50264;52.088;5.296;2023-02-18T00:05:51;102140.0;;;11.04;96.26
64023;BME280;50264;52.088;5.296;2023-02-18T00:07:28;102136.0;;;10.95;96.61
64023;BME280;50264;52.088;5.296;2023-02-18T00:10:46;102139.0;;;10.81;97.18
64023;BME280;50264;52.088;5.296;2023-02-18T00:12:23;102139.0;;;10.94;97.04
64023;BME280;50264;52.088;5.296;2023-02-18T00:14:01;102139.0;;;10.83;97.27
64023;BME280;50264;52.088;5.296;2023-02-18T00:15:38;102131.0;;;10.79;97.68
64023;BME280;50264;52.088;5.296;2023-02-18T00:18:54;102136.0;;;10.82;97.39
64023;BME280;50264;52.088;5.296;2023-02-18T00:20:32;102130.0;;;10.76;97.84
64023;BME280;50264;52.088;5.296;2023-02-18T00:22:09;102130.0;;;10.73;98.16
64023;BME280;50264;52.088;5.296;2023-02-18T00:25:22;102126.0;;;10.82;97.65
64023;BME280;50264;52.088;5.296;2023-02-18T00:26:58;102130.0;;;10.7;98.12
64023;BME280;50264;52.088;5.296;2023-02-18T00:28:34;102128.0;;;10.81;97.66
64023;BME280;50264;52.088;5.296;2023-02-18T00:31:48;102128.0;;;10.74;98.2
64023;BME280;50264;52.088;5.296;2023-02-18T00:33:25;102126.0;;;10.65;98.45
64023;BME280;50264;52.088;5.296;2023-02-18T00:35:02;102125.0;;;10.62;98.52
64023;BME280;50264;52.088;5.296;2023-02-18T00:36:39;102126.0;;;10.63;98.7
64023;BME280;50264;52.088;5.296;2023-02-18T00:39:52;102111.0;;;10.62;98.86
64023;BME280;50264;52.088;5.296;2023-02-18T00:41:30;102102.0;;;10.52;99.46
64023;BME280;50264;52.088;5.296;2023-02-18T00:43:06;102113.0;;;10.46;99.71
64023;BME280;50264;52.088;5.296;2023-02-18T00:46:20;102115.0;;;10.49;99.82
64023;BME280;50264;52.088;5.296;2023-02-18T00:47:57;102116.0;;;10.64;98.88
64023;BME280;50264;52.088;5.296;2023-02-18T00:49:33;102117.0;;;10.65;98.99
64023;BME280;50264;52.088;5.296;2023-02-18T00:51:10;102119.0;;;10.61;98.91
64023;BME280;50264;52.088;5.296;2023-02-18T00:54:23;102111.0;;;10.41;99.7
64023;BME280;50264;52.088;5.296;2023-02-18T00:56:00;102108.0;;;10.26;100.0
64023;BME280;50264;52.088;5.296;2023-02-18T00:57:36;102102.0;;;10.26;100.0
64023;BME280;50264;52.088;5.296;2023-02-18T01:00:49;102105.0;;;10.22;100.0
64023;BME280;50264;52.088;5.296;2023-02-18T01:02:26;102103.0;;;10.29;100.0
64023;BME280;50264;52.088;5.296;2023-02-18T01:04:03;102112.0;;;10.36;99.83
64023;BME280;50264;52.088;5.296;2023-02-18T01:07:17;102101.0;;;10.32;100.0
64023;BME280;50264;52.088;5.296;2023-02-18T01:08:55;102098.0;;;10.18;100.0
64023;BME280;50264;52.088;5.296;2023-02-18T01:10:31;102093.0;;;10.14;100.0
64023;BME280;50264;52.088;5.296;2023-02-18T01:12:08;102098.0;;;9.92;100.0
64023;BME280;50264;52.088;5.296;2023-02-18T01:15:22;102102.0;;;10.08;100.0
64023;BME280;50264;52.088;5.296;2023-02-18T01:16:59;102108.0;;;10.08;100.0
64023;BME280;50264;52.088;5.296;2023-02-18T01:18:35;102106.0;;;10.06;100.0
64023;BME280;50264;52.088;5.296;2023-02-18T01:21:50;102105.0;;;10.01;100.0
64023;BME280;50264;52.088;5.296;2023-02-18T01:23:26;102103.0;;;10.06;100.0
64023;BME280;50264;52.088;5.296;2023-02-18T01:25:04;102105.0;;;10.14;100.0
64023;BME280;50264;52.088;5.296;2023-02-18T01:28:18;102102.0;;;10.06;100.0
64023;BME280;50264;52.088;5.296;2023-02-18T01:29:54;102108.0;;;9.98;100.0
64023;BME280;50264;52.088;5.296;2023-02-18T01:31:30;102102.0;;;10.14;100.0
64023;BME280;50264;52.088;5.296;2023-02-18T01:33:07;102097.0;;;10.08;100.0
64023;BME280;50264;52.088;5.296;2023-02-18T01:36:19;102093.0;;;9.99;100.0
64023;BME280;50264;52.088;5.296;2023-02-18T01:37:56;102080.0;;;10.09;100.0
64023;BME280;50264;52.088;5.296;2023-02-18T01:39:32;102083.0;;;10.14;100.0
64023;BME280;50264;52.088;5.296;2023-02-18T01:42:46;102077.0;;;10.06;100.0
64023;BME280;50264;52.088;5.296;2023-02-18T01:46:07;102068.0;;;10.15;100.0
64023;BME280;50264;52.088;5.296;2023-02-18T01:47:50;102073.0;;;10.18;100.0
64023;BME280;50264;52.088;5.296;2023-02-18T01:51:11;102069.0;;;10.1;100.0
64023;BME280;50264;52.088;5.296;2023-02-18T01:52:49;102069.0;;;10.14;100.0
64023;BME280;50264;52.088;5.296;2023-02-18T01:54:27;102072.0;;;10.13;100.0
64023;BME280;50264;52.088;5.296;2023-02-18T01:56:10;102066.0;;;10.13;100.0
64023;BME280;50264;52.088;5.296;2023-02-18T01:59:29;102064.0;;;10.06;100.0
64023;BME280;50264;52.088;5.296;2023-02-18T02:01:08;102061.0;;;10.14;100.0
64023;BME280;50264;52.088;5.296;2023-02-18T02:02:45;102069.0;;;10.07;100.0
64023;BME280;50264;52.088;5.296;2023-02-18T02:04:23;102057.0;;;10.22;100.0
64023;BME280;50264;52.088;5.296;2023-02-18T02:07:38;102052.0;;;10.25;100.0
64023;BME280;50264;52.088;5.296;2023-02-18T02:09:18;102044.0;;;10.08;100.0
64023;BME280;50264;52.088;5.296;2023-02-18T02:11:06;102041.0;;;10.22;100.0
64023;BME280;50264;52.088;5.296;2023-02-18T02:13:00;102040.0;;;10.17;100.0
64023;BME280;50264;52.088;5.296;2023-02-18T02:17:03;102030.0;;;10.21;100.0
64023;BME280;50264;52.088;5.296;2023-02-18T02:24:56;102025.0;;;10.15;100.0
64023;BME280;50264;52.088;5.296;2023-02-18T02:27:22;102017.0;;;10.28;100.0
64023;BME280;50264;52.088;5.296;2023-02-18T02:29:27;102005.0;;;10.34;100.0
64023;BME280;50264;52.088;5.296;2023-02-18T02:31:46;101992.0;;;10.14;100.0
64023;BME280;50264;52.088;5.296;2023-02-18T02:35:25;101989.0;;;10.17;100.0
64023;BME280;50264;52.088;5.296;2023-02-18T02:37:11;101981.0;;;10.23;100.0
64023;BME280;50264;52.088;5.296;2023-02-18T02:38:55;101969.0;;;10.24;100.0
64023;BME280;50264;52.088;5.296;2023-02-18T02:40:37;101966.0;;;10.24;100.0
64023;BME280;50264;52.088;5.296;2023-02-18T02:42:27;101957.0;;;10.22;100.0
64023;BME280;50264;52.088;5.296;2023-02-18T02:45:57;101949.0;;;10.34;100.0
64023;BME280;50264;52.088;5.296;2023-02-18T02:47:43;101938.0;;;10.38;100.0
64023;BME280;50264;52.088;5.296;2023-02-18T02:51:18;101931.0;;;10.33;100.0
64023;BME280;50264;52.088;5.296;2023-02-18T02:53:02;101938.0;;;10.36;100.0
64023;BME280;50264;52.088;5.296;2023-02-18T02:54:41;101931.0;;;10.47;100.0
64023;BME280;50264;52.088;5.296;2023-02-18T02:57:57;101930.0;;;10.45;100.0
64023;BME280;50264;52.088;5.296;2023-02-18T02:59:35;101921.0;;;10.39;100.0
64023;BME280;50264;52.088;5.296;2023-02-18T03:01:19;101917.0;;;10.49;100.0
64023;BME280;50264;52.088;5.296;2023-02-18T03:03:23;101913.0;;;10.48;100.0
64023;BME280;50264;52.088;5.296;2023-02-18T03:05:24;101905.0;;;10.48;100.0
64023;BME280;50264;52.088;5.296;2023-02-18T03:09:16;101903.0;;;10.48;100.0
64023;BME280;50264;52.088;5.296;2023-02-18T03:11:02;101895.0;;;10.49;100.0
64023;BME280;50264;52.088;5.296;2023-02-18T03:12:45;101901.0;;;10.46;100.0
64023;BME280;50264;52.088;5.296;2023-02-18T03:14:28;101899.0;;;10.49;100.0
64023;BME280;50264;52.088;5.296;2023-02-18T03:16:12;101902.0;;;10.51;100.0
64023;BME280;50264;52.088;5.296;2023-02-18T03:17:59;101897.0;;;10.36;100.0
64023;BME280;50264;52.088;5.296;2023-02-18T03:21:23;101896.0;;;10.45;100.0
64023;BME280;50264;52.088;5.296;2023-02-18T03:23:09;101898.0;;;10.54;100.0
64023;BME280;50264;52.088;5.296;2023-02-18T03:24:54;101889.0;;;10.52;100.0
64023;BME280;50264;52.088;5.296;2023-02-18T03:26:35;101888.0;;;10.51;100.0
64023;BME280;50264;52.088;5.296;2023-02-18T03:28:16;101882.0;;;10.54;100.0
64023;BME280;50264;52.088;5.296;2023-02-18T03:31:38;101884.0;;;10.53;100.0
64023;BME280;50264;52.088;5.296;2023-02-18T03:33:24;101884.0;;;10.55;100.0
64023;BME280;50264;52.088;5.296;2023-02-18T03:35:15;101865.0;;;10.54;100.0
64023;BME280;50264;52.088;5.296;2023-02-18T03:36:52;101871.0;;;10.55;100.0
64023;BME280;50264;52.088;5.296;2023-02-18T03:40:12;101858.0;;;10.52;100.0
64023;BME280;50264;52.088;5.296;2023-02-18T03:41:50;101853.0;;;10.73;100.0
64023;BME280;50264;52.088;5.296;2023-02-18T03:43:27;101846.0;;;10.6;100.0
64023;BME280;50264;52.088;5.296;2023-02-18T03:45:04;101842.0;;;10.58;100.0
64023;BME280;50264;52.088;5.296;2023-02-18T03:48:20;101842.0;;;10.6;100.0
64023;BME280;50264;52.088;5.296;2023-02-18T03:49:56;101826.0;;;10.67;100.0
64023;BME280;50264;52.088;5.296;2023-02-18T03:51:32;101828.0;;;10.7;100.0
64023;BME280;50264;52.088;5.296;2023-02-18T03:54:44;101828.0;;;10.66;100.0
64023;BME280;50264;52.088;5.296;2023-02-18T03:56:20;101827.0;;;10.63;100.0
64023;BME280;50264;52.088;5.296;2023-02-18T03:57:57;101821.0;;;10.56;100.0
64023;BME280;50264;52.088;5.296;2023-02-18T03:59:34;101825.0;;;10.57;100.0
64023;BME280;50264;52.088;5.296;2023-02-18T04:02:46;101810.0;;;10.67;100.0
64023;BME280;50264;52.088;5.296;2023-02-18T04:04:22;101805.0;;;10.69;100.0
64023;BME280;50264;52.088;5.296;2023-02-18T04:05:58;101808.0;;;10.68;100.0
64023;BME280;50264;52.088;5.296;2023-02-18T04:09:12;101805.0;;;10.7;100.0
64023;BME280;50264;52.088;5.296;2023-02-18T04:10:48;101799.0;;;10.6;100.0
64023;BME280;50264;52.088;5.296;2023-02-18T04:12:26;101801.0;;;10.64;100.0
64023;BME280;50264;52.088;5.296;2023-02-18T04:15:39;101792.0;;;10.56;100.0
64023;BME280;50264;52.088;5.296;2023-02-18T04:17:15;101797.0;;;10.66;100.0
64023;BME280;50264;52.088;5.296;2023-02-18T04:18:51;101800.0;;;10.69;100.0
64023;BME280;50264;52.088;5.296;2023-02-18T04:20:28;101798.0;;;10.74;100.0
64023;BME280;50264;52.088;5.296;2023-02-18T04:23:40;101792.0;;;10.69;100.0
64023;BME280;50264;52.088;5.296;2023-02-18T04:25:17;101802.0;;;10.72;100.0
64023;BME280;50264;52.088;5.296;2023-02-18T04:26:54;101782.0;;;10.71;100.0
64023;BME280;50264;52.088;5.296;2023-02-18T04:30:07;101780.0;;;10.71;100.0
64023;BME280;50264;52.088;5.296;2023-02-18T04:31:43;101781.0;;;10.83;100.0
64023;BME280;50264;52.088;5.296;2023-02-18T04:33:19;101784.0;;;10.87;100.0
64023;BME280;50264;52.088;5.296;2023-02-18T04:36:32;101783.0;;;10.71;100.0
64023;BME280;50264;52.088;5.296;2023-02-18T04:38:09;101785.0;;;10.78;100.0
64023;BME280;50264;52.088;5.296;2023-02-18T04:39:46;101771.0;;;10.8;100.0
64023;BME280;50264;52.088;5.296;2023-02-18T04:41:22;101774.0;;;10.77;100.0
64023;BME280;50264;52.088;5.296;2023-02-18T04:44:36;101780.0;;;10.62;100.0
64023;BME280;50264;52.088;5.296;2023-02-18T04:46:12;101770.0;;;10.67;100.0
64023;BME280;50264;52.088;5.296;2023-02-18T04:47:48;101766.0;;;10.7;100.0
64023;BME280;50264;52.088;5.296;2023-02-18T04:51:01;101759.0;;;10.68;100.0
64023;BME280;50264;52.088;5.296;2023-02-18T04:52:39;101755.0;;;10.67;100.0
64023;BME280;50264;52.088;5.296;2023-02-18T04:54:15;101744.0;;;10.59;100.0
64023;BME280;50264;52.088;5.296;2023-02-18T04:57:29;101747.0;;;10.63;100.0
64023;BME280;50264;52.088;5.296;2023-02-18T04:59:05;101738.0;;;10.63;100.0
64023;BME280;50264;52.088;5.296;2023-02-18T05:00:41;101744.0;;;10.61;100.0
64023;BME280;50264;52.088;5.296;2023-02-18T05:02:17;101736.0;;;10.67;100.0
64023;BME280;50264;52.088;5.296;2023-02-18T05:05:30;101730.0;;;10.7;100.0
64023;BME280;50264;52.088;5.296;2023-02-18T05:07:06;101735.0;;;10.71;100.0
64023;BME280;50264;52.088;5.296;2023-02-18T05:08:42;101739.0;;;10.64;100.0
64023;BME280;50264;52.088;5.296;2023-02-18T05:11:54;101750.0;;;10.76;100.0
64023;BME280;50264;52.088;5.296;2023-02-18T05:13:30;101743.0;;;10.79;100.0
64023;BME280;50264;52.088;5.296;2023-02-18T05:15:07;101749.0;;;10.83;100.0
64023;BME280;50264;52.088;5.296;2023-02-18T05:18:20;101744.0;;;10.74;100.0
64023;BME280;50264;52.088;5.296;2023-02-18T05:19:57;101739.0;;;10.74;100.0
64023;BME280;50264;52.088;5.296;2023-02-18T05:21:33;101753.0;;;10.65;100.0
64023;BME280;50264;52.088;5.296;2023-02-18T05:23:09;101744.0;;;10.65;100.0
64023;BME280;50264;52.088;5.296;2023-02-18T05:26:21;101742.0;;;10.69;100.0
64023;BME280;50264;52.088;5.296;2023-02-18T05:27:58;101736.0;;;10.65;100.0
64023;BME280;50264;52.088;5.296;2023-02-18T05:29:34;101731.0;;;10.5;100.0
64023;BME280;50264;52.088;5.296;2023-02-18T05:32:47;101732.0;;;10.59;100.0
64023;BME280;50264;52.088;5.296;2023-02-18T05:34:23;101718.0;;;10.54;100.0
64023;BME280;50264;52.088;5.296;2023-02-18T05:35:59;101724.0;;;10.54;100.0
64023;BME280;50264;52.088;5.296;2023-02-18T05:39:11;101721.0;;;10.62;100.0
64023;BME280;50264;52.088;5.296;2023-02-18T05:40:47;101723.0;;;10.58;100.0
64023;BME280;50264;52.088;5.296;2023-02-18T05:42:23;101718.0;;;10.67;100.0
64023;BME280;50264;52.088;5.296;2023-02-18T05:46:09;101703.0;;;10.62;100.0
64023;BME280;50264;52.088;5.296;2023-02-18T05:49:21;101707.0;;;10.67;100.0
64023;BME280;50264;52.088;5.296;2023-02-18T05:50:57;101709.0;;;10.63;100.0
64023;BME280;50264;52.088;5.296;2023-02-18T05:52:34;101711.0;;;10.53;100.0
64023;BME280;50264;52.088;5.296;2023-02-18T05:55:46;101713.0;;;10.59;100.0
64023;BME280;50264;52.088;5.296;2023-02-18T05:57:22;101720.0;;;10.6;100.0
64023;BME280;50264;52.088;5.296;2023-02-18T05:58:59;101691.0;;;10.54;100.0
64023;BME280;50264;52.088;5.296;2023-02-18T06:02:12;101699.0;;;10.63;100.0
64023;BME280;50264;52.088;5.296;2023-02-18T06:03:48;101692.0;;;10.61;100.0
64023;BME280;50264;52.088;5.296;2023-02-18T06:05:24;101707.0;;;10.66;100.0
64023;BME280;50264;52.088;5.296;2023-02-18T06:08:36;101693.0;;;10.59;100.0
64023;BME280;50264;52.088;5.296;2023-02-18T06:10:12;101691.0;;;10.65;100.0
64023;BME280;50264;52.088;5.296;2023-02-18T06:11:48;101692.0;;;10.6;100.0
64023;BME280;50264;52.088;5.296;2023-02-18T06:13:25;101709.0;;;10.54;100.0
64023;BME280;50264;52.088;5.296;2023-02-18T06:16:37;101698.0;;;10.54;100.0
64023;BME280;50264;52.088;5.296;2023-02-18T06:18:13;101696.0;;;10.61;100.0
64023;BME280;50264;52.088;5.296;2023-02-18T06:19:49;101696.0;;;10.66;100.0
64023;BME280;50264;52.088;5.296;2023-02-18T06:23:01;101698.0;;;10.69;100.0
64023;BME280;50264;52.088;5.296;2023-02-18T06:24:37;101705.0;;;10.73;100.0
64023;BME280;50264;52.088;5.296;2023-02-18T06:26:14;101708.0;;;10.75;100.0
64023;BME280;50264;52.088;5.296;2023-02-18T06:29:29;101705.0;;;10.81;100.0
64023;BME280;50264;52.088;5.296;2023-02-18T06:31:05;101706.0;;;10.77;100.0
64023;BME280;50264;52.088;5.296;2023-02-18T06:32:42;101697.0;;;10.67;100.0
64023;BME280;50264;52.088;5.296;2023-02-18T06:34:18;101702.0;;;10.71;100.0
64023;BME280;50264;52.088;5.296;2023-02-18T06:37:33;101723.0;;;10.84;100.0
64023;BME280;50264;52.088;5.296;2023-02-18T06:39:08;101711.0;;;10.76;100.0
64023;BME280;50264;52.088;5.296;2023-02-18T06:40:45;101695.0;;;10.66;100.0
64023;BME280;50264;52.088;5.296;2023-02-18T06:43:58;101703.0;;;10.73;100.0
64023;BME280;50264;52.088;5.296;2023-02-18T06:45:37;101728.0;;;10.67;100.0
64023;BME280;50264;52.088;5.296;2023-02-18T06:47:13;101698.0;;;10.67;100.0
64023;BME280;50264;52.088;5.296;2023-02-18T06:50:26;101703.0;;;10.81;100.0
64023;BME280;50264;52.088;5.296;2023-02-18T06:52:03;101710.0;;;10.82;100.0
64023;BME280;50264;52.088;5.296;2023-02-18T06:53:40;101705.0;;;10.7;100.0
64023;BME280;50264;52.088;5.296;2023-02-18T06:55:16;101712.0;;;10.63;100.0
64023;BME280;50264;52.088;5.296;2023-02-18T06:58:28;101710.0;;;10.65;100.0
64023;BME280;50264;52.088;5.296;2023-02-18T07:00:07;101714.0;;;10.75;100.0
64023;BME280;50264;52.088;5.296;2023-02-18T07:01:43;101713.0;;;10.76;100.0
64023;BME280;50264;52.088;5.296;2023-02-18T07:04:55;101707.0;;;10.74;100.0
64023;BME280;50264;52.088;5.296;2023-02-18T07:06:31;101698.0;;;10.8;100.0
64023;BME280;50264;52.088;5.296;2023-02-18T07:08:07;101698.0;;;10.72;100.0
64023;BME280;50264;52.088;5.296;2023-02-18T07:11:21;101692.0;;;10.82;100.0
64023;BME280;50264;52.088;5.296;2023-02-18T07:12:57;101699.0;;;10.79;100.0
64023;BME280;50264;52.088;5.296;2023-02-18T07:14:34;101702.0;;;10.8;100.0
64023;BME280;50264;52.088;5.296;2023-02-18T07:16:10;101697.0;;;10.77;100.0
64023;BME280;50264;52.088;5.296;2023-02-18T07:19:22;101692.0;;;10.73;100.0
64023;BME280;50264;52.088;5.296;2023-02-18T07:20:58;101697.0;;;10.69;100.0
64023;BME280;50264;52.088;5.296;2023-02-18T07:22:34;101702.0;;;10.74;100.0
64023;BME280;50264;52.088;5.296;2023-02-18T07:25:47;101698.0;;;10.72;100.0
64023;BME280;50264;52.088;5.296;2023-02-18T07:27:23;101703.0;;;10.65;100.0
64023;BME280;50264;52.088;5.296;2023-02-18T07:29:00;101699.0;;;10.71;100.0
64023;BME280;50264;52.088;5.296;2023-02-18T07:32:14;101714.0;;;10.61;100.0
64023;BME280;50264;52.088;5.296;2023-02-18T07:33:53;101710.0;;;10.62;100.0
64023;BME280;50264;52.088;5.296;2023-02-18T07:35:29;101701.0;;;10.68;100.0
64023;BME280;50264;52.088;5.296;2023-02-18T07:37:08;101697.0;;;10.63;100.0
64023;BME280;50264;52.088;5.296;2023-02-18T07:40:21;101695.0;;;10.6;100.0
64023;BME280;50264;52.088;5.296;2023-02-18T07:41:57;101690.0;;;10.51;100.0
64023;BME280;50264;52.088;5.296;2023-02-18T07:43:33;101694.0;;;10.62;100.0
64023;BME280;50264;52.088;5.296;2023-02-18T07:46:46;101692.0;;;10.61;100.0
64023;BME280;50264;52.088;5.296;2023-02-18T07:48:22;101689.0;;;10.67;100.0
64023;BME280;50264;52.088;5.296;2023-02-18T07:49:58;101690.0;;;10.68;100.0
64023;BME280;50264;52.088;5.296;2023-02-18T07:53:11;101691.0;;;10.66;99.96
64023;BME280;50264;52.088;5.296;2023-02-18T07:54:50;101699.0;;;10.79;99.79
64023;BME280;50264;52.088;5.296;2023-02-18T07:56:26;101693.0;;;10.74;99.72
64023;BME280;50264;52.088;5.296;2023-02-18T07:58:02;101691.0;;;10.74;98.27
64023;BME280;50264;52.088;5.296;2023-02-18T08:01:15;101706.0;;;10.66;98.07
64023;BME280;50264;52.088;5.296;2023-02-18T08:02:51;101706.0;;;10.7;98.71
64023;BME280;50264;52.088;5.296;2023-02-18T08:04:27;101719.0;;;10.7;98.5
64023;BME280;50264;52.088;5.296;2023-02-18T08:07:41;101709.0;;;10.76;97.91
64023;BME280;50264;52.088;5.296;2023-02-18T08:09:17;101734.0;;;10.75;98.31
64023;BME280;50264;52.088;5.296;2023-02-18T08:10:56;101715.0;;;10.83;98.12
64023;BME280;50264;52.088;5.296;2023-02-18T08:14:11;101720.0;;;10.83;98.44
64023;BME280;50264;52.088;5.296;2023-02-18T08:15:47;101689.0;;;10.7;98.02
64023;BME280;50264;52.088;5.296;2023-02-18T08:17:23;101717.0;;;10.59;98.43
64023;BME280;50264;52.088;5.296;2023-02-18T08:19:01;101711.0;;;10.75;98.33
64023;BME280;50264;52.088;5.296;2023-02-18T08:22:15;101711.0;;;10.73;98.7
64023;BME280;50264;52.088;5.296;2023-02-18T08:23:52;101712.0;;;10.74;97.39
64023;BME280;50264;52.088;5.296;2023-02-18T08:25:28;101727.0;;;10.7;97.56
64023;BME280;50264;52.088;5.296;2023-02-18T08:28:41;101725.0;;;10.62;97.46
64023;BME280;50264;52.088;5.296;2023-02-18T08:30:18;101727.0;;;10.59;97.72
64023;BME280;50264;52.088;5.296;2023-02-18T08:31:56;101716.0;;;10.5;98.26
64023;BME280;50264;52.088;5.296;2023-02-18T08:33:32;101735.0;;;10.43;98.14
64023;BME280;50264;52.088;5.296;2023-02-18T08:36:46;101721.0;;;10.55;98.61
64023;BME280;50264;52.088;5.296;2023-02-18T08:38:23;101723.0;;;10.52;99.0
64023;BME280;50264;52.088;5.296;2023-02-18T08:40:00;101726.0;;;10.47;97.86
64023;BME280;50264;52.088;5.296;2023-02-18T08:43:13;101725.0;;;10.46;98.84
64023;BME280;50264;52.088;5.296;2023-02-18T08:44:51;101719.0;;;10.41;99.01
64023;BME280;50264;52.088;5.296;2023-02-18T08:46:27;101713.0;;;10.37;98.25
64023;BME280;50264;52.088;5.296;2023-02-18T08:49:40;101722.0;;;10.45;99.07
64023;BME280;50264;52.088;5.296;2023-02-18T08:51:19;101716.0;;;10.4;98.28
64023;BME280;50264;52.088;5.296;2023-02-18T08:52:59;101718.0;;;10.3;98.93
64023;BME280;50264;52.088;5.296;2023-02-18T08:54:36;101725.0;;;10.26;98.92
64023;BME280;50264;52.088;5.296;2023-02-18T08:57:51;101726.0;;;10.23;98.75
64023;BME280;50264;52.088;5.296;2023-02-18T08:59:27;101724.0;;;10.35;99.1
64023;BME280;50264;52.088;5.296;2023-02-18T09:01:04;101725.0;;;10.5;97.5
64023;BME280;50264;52.088;5.296;2023-02-18T09:04:20;101721.0;;;10.31;97.99
64023;BME280;50264;52.088;5.296;2023-02-18T09:05:57;101726.0;;;10.28;97.62
64023;BME280;50264;52.088;5.296;2023-02-18T09:07:35;101734.0;;;10.24;98.99
64023;BME280;50264;52.088;5.296;2023-02-18T09:09:12;101739.0;;;10.19;98.16
64023;BME280;50264;52.088;5.296;2023-02-18T09:12:24;101744.0;;;10.19;97.85
64023;BME280;50264;52.088;5.296;2023-02-18T09:14:02;101735.0;;;10.37;97.96
64023;BME280;50264;52.088;5.296;2023-02-18T09:15:38;101743.0;;;10.25;98.11
64023;BME280;50264;52.088;5.296;2023-02-18T09:18:50;101750.0;;;10.23;97.56
64023;BME280;50264;52.088;5.296;2023-02-18T09:20:26;101737.0;;;10.35;97.91
64023;BME280;50264;52.088;5.296;2023-02-18T09:22:02;101749.0;;;10.31;98.0
64023;BME280;50264;52.088;5.296;2023-02-18T09:25:15;101745.0;;;10.43;98.7
64023;BME280;50264;52.088;5.296;2023-02-18T09:26:51;101732.0;;;10.35;97.53
64023;BME280;50264;52.088;5.296;2023-02-18T09:28:27;101750.0;;;10.44;97.66
64023;BME280;50264;52.088;5.296;2023-02-18T09:30:05;101739.0;;;10.46;97.05
64023;BME280;50264;52.088;5.296;2023-02-18T09:33:19;101736.0;;;10.39;96.95
64023;BME280;50264;52.088;5.296;2023-02-18T09:34:55;101734.0;;;10.42;97.58
64023;BME280;50264;52.088;5.296;2023-02-18T09:36:31;101742.0;;;10.42;96.99
64023;BME280;50264;52.088;5.296;2023-02-18T09:39:48;101731.0;;;10.37;96.77
64023;BME280;50264;52.088;5.296;2023-02-18T09:41:31;101741.0;;;10.41;96.96
64023;BME280;50264;52.088;5.296;2023-02-18T09:43:23;101744.0;;;10.39;96.13
64023;BME280;50264;52.088;5.296;2023-02-18T09:45:06;101750.0;;;10.5;96.41
64023;BME280;50264;52.088;5.296;2023-02-18T09:46:50;101772.0;;;10.53;95.81
64023;BME280;50264;52.088;5.296;2023-02-18T09:50:16;101752.0;;;10.6;95.25
64023;BME280;50264;52.088;5.296;2023-02-18T09:52:02;101762.0;;;10.54;95.41
64023;BME280;50264;52.088;5.296;2023-02-18T09:53:42;101762.0;;;10.58;95.12
64023;BME280;50264;52.088;5.296;2023-02-18T09:55:21;101753.0;;;10.59;95.42
64023;BME280;50264;52.088;5.296;2023-02-18T10:00:19;101763.0;;;10.61;95.06
64023;BME280;50264;52.088;5.296;2023-02-18T10:01:59;101764.0;;;10.6;94.11
64023;BME280;50264;52.088;5.296;2023-02-18T10:03:36;101759.0;;;10.64;94.24
64023;BME280;50264;52.088;5.296;2023-02-18T10:06:51;101766.0;;;10.69;93.71
64023;BME280;50264;52.088;5.296;2023-02-18T10:08:31;101771.0;;;10.77;93.65
64023;BME280;50264;52.088;5.296;2023-02-18T10:11:57;101758.0;;;10.77;92.97
64023;BME280;50264;52.088;5.296;2023-02-18T10:15:20;101762.0;;;10.76;93.02
64023;BME280;50264;52.088;5.296;2023-02-18T10:16:58;101770.0;;;10.72;94.03
64023;BME280;50264;52.088;5.296;2023-02-18T10:18:40;101770.0;;;10.73;94.1
64023;BME280;50264;52.088;5.296;2023-02-18T10:20:20;101772.0;;;10.78;93.61
64023;BME280;50264;52.088;5.296;2023-02-18T10:23:42;101782.0;;;10.79;93.01
64023;BME280;50264;52.088;5.296;2023-02-18T10:25:30;101774.0;;;10.93;93.69
64023;BME280;50264;52.088;5.296;2023-02-18T10:27:09;101774.0;;;10.9;93.12
64023;BME280;50264;52.088;5.296;2023-02-18T10:28:59;101781.0;;;10.97;93.17
64023;BME280;50264;52.088;5.296;2023-02-18T10:32:21;101787.0;;;11.01;93.25
64023;BME280;50264;52.088;5.296;2023-02-18T10:34:02;101788.0;;;11.0;93.18
64023;BME280;50264;52.088;5.296;2023-02-18T10:35:51;101767.0;;;11.05;92.06
64023;BME280;50264;52.088;5.296;2023-02-18T10:37:42;101775.0;;;11.06;92.43
64023;BME280;50264;52.088;5.296;2023-02-18T10:39:40;101782.0;;;11.06;92.25
64023;BME280;50264;52.088;5.296;2023-02-18T10:41:28;101787.0;;;11.05;93.14
64023;BME280;50264;52.088;5.296;2023-02-18T10:45:02;101786.0;;;11.08;91.47
64023;BME280;50264;52.088;5.296;2023-02-18T10:46:49;101822.0;;;11.0;92.64
64023;BME280;50264;52.088;5.296;2023-02-18T10:48:50;101793.0;;;11.04;92.76
64023;BME280;50264;52.088;5.296;2023-02-18T10:50:34;101797.0;;;11.09;92.53
64023;BME280;50264;52.088;5.296;2023-02-18T10:52:16;101786.0;;;11.23;92.53
64023;BME280;50264;52.088;5.296;2023-02-18T10:53:53;101794.0;;;11.29;91.15
64023;BME280;50264;52.088;5.296;2023-02-18T10:57:16;101788.0;;;11.26;92.15
64023;BME280;50264;52.088;5.296;2023-02-18T10:59:00;101785.0;;;11.21;92.21
64023;BME280;50264;52.088;5.296;2023-02-18T11:00:40;101789.0;;;11.31;92.37
64023;BME280;50264;52.088;5.296;2023-02-18T11:02:17;101796.0;;;11.36;91.45
64023;BME280;50264;52.088;5.296;2023-02-18T11:05:43;101797.0;;;11.48;91.94
64023;BME280;50264;52.088;5.296;2023-02-18T11:07:22;101793.0;;;11.38;91.48
64023;BME280;50264;52.088;5.296;2023-02-18T11:09:01;101793.0;;;11.44;90.62
64023;BME280;50264;52.088;5.296;2023-02-18T11:10:39;101785.0;;;11.58;91.22
64023;BME280;50264;52.088;5.296;2023-02-18T11:14:00;101787.0;;;11.53;90.9
64023;BME280;50264;52.088;5.296;2023-02-18T11:15:53;101781.0;;;11.63;90.09
64023;BME280;50264;52.088;5.296;2023-02-18T11:17:32;101782.0;;;11.64;90.39
64023;BME280;50264;52.088;5.296;2023-02-18T11:19:30;101792.0;;;11.78;90.74
64023;BME280;50264;52.088;5.296;2023-02-18T11:21:20;101783.0;;;11.63;89.53
64023;BME280;50264;52.088;5.296;2023-02-18T11:23:15;101788.0;;;11.69;90.83
64023;BME280;50264;52.088;5.296;2023-02-18T11:26:32;101787.0;;;11.69;90.32